sensor_id;sensor_type;location;lat;lon;timestamp;temperature;humidity
18189;DHT22;9219;50.396;8.546;2023-02-01T00:03:17;4.20;99.90
18189;DHT22;9219;50.396;8.546;2023-02-01T00:05:55;4.40;99.90
18189;DHT22;9219;50.396;8.546;2023-02-01T00:08:22;4.40;99.90
18189;DHT22;9219;50.396;8.546;2023-02-01T00:10:59;4.50;99.90
18189;DHT22;9219;50.396;8.546;2023-02-01T00:13:29;4.40;99.90
18189;DHT22;9219;50.396;8.546;2023-02-01T00:16:13;4.30;99.90
18189;DHT22;9219;50.396;8.546;2023-02-01T00:18:47;4.70;99.90
18189;DHT22;9219;50.396;8.546;2023-02-01T00:21:17;4.90;99.90
18189;DHT22;9219;50.396;8.546;2023-02-01T00:26:32;4.70;99.90
18189;DHT22;9219;50.396;8.546;2023-02-01T00:32:06;4.50;99.90
18189;DHT22;9219;50.396;8.546;2023-02-01T00:34:34;4.90;99.90
18189;DHT22;9219;50.396;8.546;2023-02-01T00:37:03;5.00;99.90
18189;DHT22;9219;50.396;8.546;2023-02-01T00:40:05;5.10;99.90
18189;DHT22;9219;50.396;8.546;2023-02-01T00:42:50;5.30;99.90
18189;DHT22;9219;50.396;8.546;2023-02-01T00:45:20;5.10;99.90
18189;DHT22;9219;50.396;8.546;2023-02-01T00:52:54;5.10;99.90
18189;DHT22;9219;50.396;8.546;2023-02-01T00:55:26;5.40;99.90
18189;DHT22;9219;50.396;8.546;2023-02-01T00:58:06;5.30;99.90
18189;DHT22;9219;50.396;8.546;2023-02-01T01:00:37;5.30;99.90
18189;DHT22;9219;50.396;8.546;2023-02-01T01:03:08;5.40;99.90
18189;DHT22;9219;50.396;8.546;2023-02-01T01:05:45;5.40;99.90
18189;DHT22;9219;50.396;8.546;2023-02-01T01:08:14;5.40;99.90
18189;DHT22;9219;50.396;8.546;2023-02-01T01:11:21;5.20;99.90
18189;DHT22;9219;50.396;8.546;2023-02-01T01:13:52;5.20;99.90
18189;DHT22;9219;50.396;8.546;2023-02-01T01:16:25;5.00;99.90
18189;DHT22;9219;50.396;8.546;2023-02-01T01:18:59;4.80;99.90
18189;DHT22;9219;50.396;8.546;2023-02-01T01:28:58;4.90;99.90
18189;DHT22;9219;50.396;8.546;2023-02-01T01:31:27;5.10;99.90
18189;DHT22;9219;50.396;8.546;2023-02-01T01:34:00;5.10;99.90
18189;DHT22;9219;50.396;8.546;2023-02-01T01:39:21;4.90;99.90
18189;DHT22;9219;50.396;8.546;2023-02-01T01:41:53;4.60;99.90
18189;DHT22;9219;50.396;8.546;2023-02-01T01:44:59;4.60;99.90
18189;DHT22;9219;50.396;8.546;2023-02-01T01:53:23;4.50;99.90
18189;DHT22;9219;50.396;8.546;2023-02-01T01:55:53;4.50;99.90
18189;DHT22;9219;50.396;8.546;2023-02-01T01:58:29;4.40;99.90
18189;DHT22;9219;50.396;8.546;2023-02-01T02:01:00;4.30;99.90
18189;DHT22;9219;50.396;8.546;2023-02-01T02:03:40;4.20;99.90
18189;DHT22;9219;50.396;8.546;2023-02-01T02:06:14;4.20;99.90
18189;DHT22;9219;50.396;8.546;2023-02-01T02:08:52;4.40;99.90
18189;DHT22;9219;50.396;8.546;2023-02-01T02:16:39;4.60;99.90
18189;DHT22;9219;50.396;8.546;2023-02-01T02:19:36;4.30;99.90
18189;DHT22;9219;50.396;8.546;2023-02-01T02:22:48;4.20;99.90
18189;DHT22;9219;50.396;8.546;2023-02-01T02:25:57;4.10;99.90
18189;DHT22;9219;50.396;8.546;2023-02-01T02:28:51;4.30;99.90
18189;DHT22;9219;50.396;8.546;2023-02-01T02:31:47;4.20;99.90
18189;DHT22;9219;50.396;8.546;2023-02-01T02:34:26;4.30;99.90
18189;DHT22;9219;50.396;8.546;2023-02-01T02:42:47;4.00;99.90
18189;DHT22;9219;50.396;8.546;2023-02-01T02:45:44;4.10;99.90
18189;DHT22;9219;50.396;8.546;2023-02-01T02:48:42;4.10;99.90
18189;DHT22;9219;50.396;8.546;2023-02-01T02:51:14;3.90;99.90
18189;DHT22;9219;50.396;8.546;2023-02-01T02:54:05;3.90;99.90
18189;DHT22;9219;50.396;8.546;2023-02-01T02:56:51;3.90;99.90
18189;DHT22;9219;50.396;8.546;2023-02-01T03:04:38;4.00;99.90
18189;DHT22;9219;50.396;8.546;2023-02-01T03:07:15;3.90;99.90
18189;DHT22;9219;50.396;8.546;2023-02-01T03:10:03;3.80;99.90
18189;DHT22;9219;50.396;8.546;2023-02-01T03:12:34;3.80;99.90
18189;DHT22;9219;50.396;8.546;2023-02-01T03:15:24;3.80;99.90
18189;DHT22;9219;50.396;8.546;2023-02-01T03:17:56;4.00;99.90
18189;DHT22;9219;50.396;8.546;2023-02-01T03:20:30;4.10;99.90
18189;DHT22;9219;50.396;8.546;2023-02-01T03:22:59;4.00;99.90
18189;DHT22;9219;50.396;8.546;2023-02-01T03:30:54;4.00;99.90
18189;DHT22;9219;50.396;8.546;2023-02-01T03:33:23;4.00;99.90
18189;DHT22;9219;50.396;8.546;2023-02-01T03:35:59;3.90;99.90
18189;DHT22;9219;50.396;8.546;2023-02-01T03:38:38;4.00;99.90
18189;DHT22;9219;50.396;8.546;2023-02-01T03:41:13;4.00;99.90
18189;DHT22;9219;50.396;8.546;2023-02-01T03:43:50;4.00;99.90
18189;DHT22;9219;50.396;8.546;2023-02-01T03:46:29;4.00;99.90
18189;DHT22;9219;50.396;8.546;2023-02-01T03:52:10;3.90;99.90
18189;DHT22;9219;50.396;8.546;2023-02-01T03:54:39;4.00;99.90
18189;DHT22;9219;50.396;8.546;2023-02-01T03:57:12;4.20;99.90
18189;DHT22;9219;50.396;8.546;2023-02-01T03:59:41;4.10;99.90
18189;DHT22;9219;50.396;8.546;2023-02-01T04:02:09;4.00;99.90
18189;DHT22;9219;50.396;8.546;2023-02-01T04:04:45;3.80;99.90
18189;DHT22;9219;50.396;8.546;2023-02-01T04:07:16;3.80;99.90
18189;DHT22;9219;50.396;8.546;2023-02-01T04:12:35;3.90;99.90
18189;DHT22;9219;50.396;8.546;2023-02-01T04:15:04;3.80;99.90
18189;DHT22;9219;50.396;8.546;2023-02-01T04:17:43;4.00;99.90
18189;DHT22;9219;50.396;8.546;2023-02-01T04:20:11;4.10;99.90
18189;DHT22;9219;50.396;8.546;2023-02-01T04:22:39;4.00;99.90
18189;DHT22;9219;50.396;8.546;2023-02-01T04:25:14;3.90;99.90
18189;DHT22;9219;50.396;8.546;2023-02-01T04:27:44;4.00;99.90
18189;DHT22;9219;50.396;8.546;2023-02-01T04:30:14;4.00;99.90
18189;DHT22;9219;50.396;8.546;2023-02-01T04:32:44;4.10;99.90
18189;DHT22;9219;50.396;8.546;2023-02-01T04:40:17;4.40;99.90
18189;DHT22;9219;50.396;8.546;2023-02-01T04:42:48;4.10;99.90
18189;DHT22;9219;50.396;8.546;2023-02-01T04:45:18;4.30;99.90
18189;DHT22;9219;50.396;8.546;2023-02-01T04:47:45;4.30;99.90
18189;DHT22;9219;50.396;8.546;2023-02-01T04:50:15;4.40;99.90
18189;DHT22;9219;50.396;8.546;2023-02-01T04:52:44;4.50;99.90
18189;DHT22;9219;50.396;8.546;2023-02-01T04:55:17;4.20;99.90
18189;DHT22;9219;50.396;8.546;2023-02-01T04:57:45;4.30;99.90
18189;DHT22;9219;50.396;8.546;2023-02-01T05:04:29;4.30;99.90
18189;DHT22;9219;50.396;8.546;2023-02-01T05:06:56;4.30;99.90
18189;DHT22;9219;50.396;8.546;2023-02-01T05:09:37;4.10;99.90
18189;DHT22;9219;50.396;8.546;2023-02-01T05:12:12;4.10;99.90
18189;DHT22;9219;50.396;8.546;2023-02-01T05:14:58;4.20;99.90
18189;DHT22;9219;50.396;8.546;2023-02-01T05:17:26;4.10;99.90
18189;DHT22;9219;50.396;8.546;2023-02-01T05:20:02;4.10;99.90
18189;DHT22;9219;50.396;8.546;2023-02-01T05:22:46;4.10;99.90
18189;DHT22;9219;50.396;8.546;2023-02-01T05:30:32;4.20;99.90
18189;DHT22;9219;50.396;8.546;2023-02-01T05:33:04;4.10;99.90
18189;DHT22;9219;50.396;8.546;2023-02-01T05:35:32;4.00;99.90
18189;DHT22;9219;50.396;8.546;2023-02-01T05:38:00;4.00;99.90
18189;DHT22;9219;50.396;8.546;2023-02-01T05:40:30;3.90;99.90
18189;DHT22;9219;50.396;8.546;2023-02-01T05:43:00;4.00;99.90
18189;DHT22;9219;50.396;8.546;2023-02-01T05:45:32;4.00;99.90
18189;DHT22;9219;50.396;8.546;2023-02-01T05:53:07;4.10;99.90
18189;DHT22;9219;50.396;8.546;2023-02-01T05:55:38;3.90;99.90
18189;DHT22;9219;50.396;8.546;2023-02-01T05:58:06;3.90;99.90
18189;DHT22;9219;50.396;8.546;2023-02-01T06:00:34;3.90;99.90
18189;DHT22;9219;50.396;8.546;2023-02-01T06:03:02;3.90;99.90
18189;DHT22;9219;50.396;8.546;2023-02-01T06:05:29;4.10;99.90
18189;DHT22;9219;50.396;8.546;2023-02-01T06:07:59;4.00;99.90
18189;DHT22;9219;50.396;8.546;2023-02-01T06:10:35;3.90;99.90
18189;DHT22;9219;50.396;8.546;2023-02-01T06:13:02;3.90;99.90
18189;DHT22;9219;50.396;8.546;2023-02-01T06:20:20;3.90;99.90
18189;DHT22;9219;50.396;8.546;2023-02-01T06:22:49;3.80;99.90
18189;DHT22;9219;50.396;8.546;2023-02-01T06:25:17;3.80;99.90
18189;DHT22;9219;50.396;8.546;2023-02-01T06:27:49;3.80;99.90
18189;DHT22;9219;50.396;8.546;2023-02-01T06:30:20;3.60;99.90
18189;DHT22;9219;50.396;8.546;2023-02-01T06:32:52;3.70;99.90
18189;DHT22;9219;50.396;8.546;2023-02-01T06:35:21;3.80;99.90
18189;DHT22;9219;50.396;8.546;2023-02-01T06:43:02;3.90;99.90
18189;DHT22;9219;50.396;8.546;2023-02-01T06:45:35;3.80;99.90
18189;DHT22;9219;50.396;8.546;2023-02-01T06:48:04;3.80;99.90
18189;DHT22;9219;50.396;8.546;2023-02-01T06:50:33;3.90;99.90
18189;DHT22;9219;50.396;8.546;2023-02-01T06:53:04;4.00;99.90
18189;DHT22;9219;50.396;8.546;2023-02-01T06:55:36;3.90;99.90
18189;DHT22;9219;50.396;8.546;2023-02-01T06:58:07;3.80;99.90
18189;DHT22;9219;50.396;8.546;2023-02-01T07:05:40;3.80;99.90
18189;DHT22;9219;50.396;8.546;2023-02-01T07:08:08;3.90;99.90
18189;DHT22;9219;50.396;8.546;2023-02-01T07:10:35;4.00;99.90
18189;DHT22;9219;50.396;8.546;2023-02-01T07:13:04;4.00;99.90
18189;DHT22;9219;50.396;8.546;2023-02-01T07:15:32;4.00;99.90
18189;DHT22;9219;50.396;8.546;2023-02-01T07:18:01;3.80;99.90
18189;DHT22;9219;50.396;8.546;2023-02-01T07:20:34;3.80;99.90
18189;DHT22;9219;50.396;8.546;2023-02-01T07:23:05;3.70;99.90
18189;DHT22;9219;50.396;8.546;2023-02-01T07:29:54;3.80;99.90
18189;DHT22;9219;50.396;8.546;2023-02-01T07:32:23;3.80;99.90
18189;DHT22;9219;50.396;8.546;2023-02-01T07:34:50;3.80;99.90
18189;DHT22;9219;50.396;8.546;2023-02-01T07:37:20;3.80;99.90
18189;DHT22;9219;50.396;8.546;2023-02-01T07:39:48;3.70;99.90
18189;DHT22;9219;50.396;8.546;2023-02-01T07:42:17;3.80;99.90
18189;DHT22;9219;50.396;8.546;2023-02-01T07:44:45;3.80;99.90
18189;DHT22;9219;50.396;8.546;2023-02-01T07:52:21;3.80;99.90
18189;DHT22;9219;50.396;8.546;2023-02-01T07:57:38;3.90;99.90
18189;DHT22;9219;50.396;8.546;2023-02-01T08:00:26;4.00;99.90
18189;DHT22;9219;50.396;8.546;2023-02-01T08:03:18;4.00;99.90
18189;DHT22;9219;50.396;8.546;2023-02-01T08:05:54;3.90;99.90
18189;DHT22;9219;50.396;8.546;2023-02-01T08:08:42;3.80;99.90
18189;DHT22;9219;50.396;8.546;2023-02-01T08:16:23;3.60;99.90
18189;DHT22;9219;50.396;8.546;2023-02-01T08:19:01;3.70;99.90
18189;DHT22;9219;50.396;8.546;2023-02-01T08:21:37;3.70;99.90
18189;DHT22;9219;50.396;8.546;2023-02-01T08:24:08;3.60;99.90
18189;DHT22;9219;50.396;8.546;2023-02-01T08:26:43;3.60;99.90
18189;DHT22;9219;50.396;8.546;2023-02-01T08:29:20;3.60;99.90
18189;DHT22;9219;50.396;8.546;2023-02-01T08:31:51;3.60;99.90
18189;DHT22;9219;50.396;8.546;2023-02-01T08:39:40;3.70;99.90
18189;DHT22;9219;50.396;8.546;2023-02-01T08:42:16;3.50;99.90
18189;DHT22;9219;50.396;8.546;2023-02-01T08:45:03;3.70;99.90
18189;DHT22;9219;50.396;8.546;2023-02-01T08:47:48;3.70;99.90
18189;DHT22;9219;50.396;8.546;2023-02-01T08:50:16;3.70;99.90
18189;DHT22;9219;50.396;8.546;2023-02-01T08:52:55;3.70;99.90
18189;DHT22;9219;50.396;8.546;2023-02-01T09:01:17;3.70;99.90
18189;DHT22;9219;50.396;8.546;2023-02-01T09:03:46;3.70;99.90
18189;DHT22;9219;50.396;8.546;2023-02-01T09:06:14;3.70;99.90
18189;DHT22;9219;50.396;8.546;2023-02-01T09:08:44;3.70;99.90
18189;DHT22;9219;50.396;8.546;2023-02-01T09:11:17;3.70;99.90
18189;DHT22;9219;50.396;8.546;2023-02-01T09:13:46;3.70;99.90
18189;DHT22;9219;50.396;8.546;2023-02-01T09:16:13;3.70;99.90
18189;DHT22;9219;50.396;8.546;2023-02-01T09:18:42;3.60;99.90
18189;DHT22;9219;50.396;8.546;2023-02-01T09:21:30;3.70;99.90
18189;DHT22;9219;50.396;8.546;2023-02-01T09:24:10;3.70;99.90
18189;DHT22;9219;50.396;8.546;2023-02-01T09:26:43;3.70;99.90
18189;DHT22;9219;50.396;8.546;2023-02-01T09:29:10;3.70;99.90
18189;DHT22;9219;50.396;8.546;2023-02-01T09:31:39;3.70;99.90
18189;DHT22;9219;50.396;8.546;2023-02-01T09:34:23;3.70;99.90
18189;DHT22;9219;50.396;8.546;2023-02-01T09:37:05;3.90;99.90
18189;DHT22;9219;50.396;8.546;2023-02-01T09:39:32;3.70;99.90
18189;DHT22;9219;50.396;8.546;2023-02-01T09:47:11;3.80;99.90
18189;DHT22;9219;50.396;8.546;2023-02-01T09:49:47;3.80;99.90
18189;DHT22;9219;50.396;8.546;2023-02-01T09:52:21;3.70;99.90
18189;DHT22;9219;50.396;8.546;2023-02-01T09:54:58;3.70;99.90
18189;DHT22;9219;50.396;8.546;2023-02-01T09:57:41;3.80;99.90
18189;DHT22;9219;50.396;8.546;2023-02-01T10:00:17;3.90;99.90
18189;DHT22;9219;50.396;8.546;2023-02-01T10:05:44;3.90;99.90
18189;DHT22;9219;50.396;8.546;2023-02-01T10:08:28;3.80;99.90
18189;DHT22;9219;50.396;8.546;2023-02-01T10:11:03;3.70;99.90
18189;DHT22;9219;50.396;8.546;2023-02-01T10:13:44;3.80;99.90
18189;DHT22;9219;50.396;8.546;2023-02-01T10:16:28;3.80;99.90
18189;DHT22;9219;50.396;8.546;2023-02-01T10:24:41;3.80;99.90
18189;DHT22;9219;50.396;8.546;2023-02-01T10:27:17;4.20;99.90
18189;DHT22;9219;50.396;8.546;2023-02-01T10:29:51;4.10;99.90
18189;DHT22;9219;50.396;8.546;2023-02-01T10:32:34;4.10;99.90
18189;DHT22;9219;50.396;8.546;2023-02-01T10:35:12;3.90;99.90
18189;DHT22;9219;50.396;8.546;2023-02-01T10:37:45;4.00;99.90
18189;DHT22;9219;50.396;8.546;2023-02-01T10:40:19;4.10;99.90
18189;DHT22;9219;50.396;8.546;2023-02-01T10:47:57;4.20;99.90
18189;DHT22;9219;50.396;8.546;2023-02-01T10:50:37;4.10;99.90
18189;DHT22;9219;50.396;8.546;2023-02-01T10:53:12;4.00;99.90
18189;DHT22;9219;50.396;8.546;2023-02-01T10:55:52;4.10;99.90
18189;DHT22;9219;50.396;8.546;2023-02-01T10:58:25;4.00;99.90
18189;DHT22;9219;50.396;8.546;2023-02-01T11:01:01;4.00;99.90
18189;DHT22;9219;50.396;8.546;2023-02-01T11:06:27;4.00;99.90
18189;DHT22;9219;50.396;8.546;2023-02-01T11:08:58;4.10;99.90
18189;DHT22;9219;50.396;8.546;2023-02-01T11:11:25;4.20;99.90
18189;DHT22;9219;50.396;8.546;2023-02-01T11:13:58;4.20;99.90
18189;DHT22;9219;50.396;8.546;2023-02-01T11:16:37;4.20;99.90
18189;DHT22;9219;50.396;8.546;2023-02-01T11:19:05;4.30;99.90
18189;DHT22;9219;50.396;8.546;2023-02-01T11:21:37;4.20;99.90
18189;DHT22;9219;50.396;8.546;2023-02-01T11:24:11;4.30;99.90
18189;DHT22;9219;50.396;8.546;2023-02-01T11:31:47;4.30;99.90
18189;DHT22;9219;50.396;8.546;2023-02-01T11:34:22;4.10;99.90
18189;DHT22;9219;50.396;8.546;2023-02-01T11:36:52;4.20;99.90
18189;DHT22;9219;50.396;8.546;2023-02-01T11:39:29;4.20;99.90
18189;DHT22;9219;50.396;8.546;2023-02-01T11:42:04;4.30;99.90
18189;DHT22;9219;50.396;8.546;2023-02-01T11:44:44;4.40;99.90
18189;DHT22;9219;50.396;8.546;2023-02-01T11:47:25;4.30;99.90
18189;DHT22;9219;50.396;8.546;2023-02-01T11:54:48;4.40;99.90
18189;DHT22;9219;50.396;8.546;2023-02-01T11:57:37;4.40;99.90
18189;DHT22;9219;50.396;8.546;2023-02-01T12:00:26;4.50;99.90
18189;DHT22;9219;50.396;8.546;2023-02-01T12:03:32;4.40;99.90
18189;DHT22;9219;50.396;8.546;2023-02-01T12:06:08;4.40;99.90
18189;DHT22;9219;50.396;8.546;2023-02-01T12:09:01;4.50;99.90
18189;DHT22;9219;50.396;8.546;2023-02-01T12:11:45;4.50;99.90
18189;DHT22;9219;50.396;8.546;2023-02-01T12:17:45;4.60;99.90
18189;DHT22;9219;50.396;8.546;2023-02-01T12:20:28;4.60;99.90
18189;DHT22;9219;50.396;8.546;2023-02-01T12:23:10;4.60;99.90
18189;DHT22;9219;50.396;8.546;2023-02-01T12:25:56;4.70;99.90
18189;DHT22;9219;50.396;8.546;2023-02-01T12:28:51;4.80;99.90
18189;DHT22;9219;50.396;8.546;2023-02-01T12:31:54;4.80;99.90
18189;DHT22;9219;50.396;8.546;2023-02-01T12:38:57;4.80;99.90
18189;DHT22;9219;50.396;8.546;2023-02-01T12:41:51;4.70;99.90
18189;DHT22;9219;50.396;8.546;2023-02-01T12:44:42;4.60;99.90
18189;DHT22;9219;50.396;8.546;2023-02-01T12:47:19;4.70;99.90
18189;DHT22;9219;50.396;8.546;2023-02-01T12:49:57;4.60;99.90
18189;DHT22;9219;50.396;8.546;2023-02-01T12:52:36;4.60;99.90
18189;DHT22;9219;50.396;8.546;2023-02-01T12:55:16;4.60;99.90
18189;DHT22;9219;50.396;8.546;2023-02-01T13:03:00;4.60;99.90
18189;DHT22;9219;50.396;8.546;2023-02-01T13:05:44;4.70;99.90
18189;DHT22;9219;50.396;8.546;2023-02-01T13:08:23;4.70;99.90
18189;DHT22;9219;50.396;8.546;2023-02-01T13:10:59;4.70;99.90
18189;DHT22;9219;50.396;8.546;2023-02-01T13:13:32;4.80;99.90
18189;DHT22;9219;50.396;8.546;2023-02-01T13:16:12;4.70;99.90
18189;DHT22;9219;50.396;8.546;2023-02-01T13:22:30;4.50;99.90
18189;DHT22;9219;50.396;8.546;2023-02-01T13:25:04;4.50;99.90
18189;DHT22;9219;50.396;8.546;2023-02-01T13:27:47;4.70;99.90
18189;DHT22;9219;50.396;8.546;2023-02-01T13:30:20;4.80;99.90
18189;DHT22;9219;50.396;8.546;2023-02-01T13:33:13;4.80;99.90
18189;DHT22;9219;50.396;8.546;2023-02-01T13:36:22;4.80;99.90
18189;DHT22;9219;50.396;8.546;2023-02-01T13:44:18;5.00;99.90
18189;DHT22;9219;50.396;8.546;2023-02-01T13:46:47;5.10;99.90
18189;DHT22;9219;50.396;8.546;2023-02-01T13:49:23;5.10;99.90
18189;DHT22;9219;50.396;8.546;2023-02-01T13:51:55;5.00;99.90
18189;DHT22;9219;50.396;8.546;2023-02-01T13:54:44;5.00;99.90
18189;DHT22;9219;50.396;8.546;2023-02-01T13:57:43;5.20;99.90
18189;DHT22;9219;50.396;8.546;2023-02-01T14:03:17;5.20;99.90
18189;DHT22;9219;50.396;8.546;2023-02-01T14:06:02;5.20;99.90
18189;DHT22;9219;50.396;8.546;2023-02-01T14:11:43;5.00;99.90
18189;DHT22;9219;50.396;8.546;2023-02-01T14:14:41;5.00;99.90
18189;DHT22;9219;50.396;8.546;2023-02-01T14:17:34;5.10;99.90
18189;DHT22;9219;50.396;8.546;2023-02-01T14:23:41;5.10;99.90
18189;DHT22;9219;50.396;8.546;2023-02-01T14:26:18;4.90;99.90
18189;DHT22;9219;50.396;8.546;2023-02-01T14:28:56;5.00;99.90
18189;DHT22;9219;50.396;8.546;2023-02-01T14:31:49;5.20;99.90
18189;DHT22;9219;50.396;8.546;2023-02-01T14:34:31;5.20;99.90
18189;DHT22;9219;50.396;8.546;2023-02-01T14:37:03;5.00;99.90
18189;DHT22;9219;50.396;8.546;2023-02-01T14:39:56;4.90;99.90
18189;DHT22;9219;50.396;8.546;2023-02-01T14:48:46;4.90;99.90
18189;DHT22;9219;50.396;8.546;2023-02-01T14:51:16;4.90;99.90
18189;DHT22;9219;50.396;8.546;2023-02-01T14:53:46;5.10;99.90
18189;DHT22;9219;50.396;8.546;2023-02-01T14:56:18;5.10;99.90
18189;DHT22;9219;50.396;8.546;2023-02-01T14:58:57;5.10;99.90
18189;DHT22;9219;50.396;8.546;2023-02-01T15:01:33;5.10;99.90
18189;DHT22;9219;50.396;8.546;2023-02-01T15:09:12;4.90;99.90
18189;DHT22;9219;50.396;8.546;2023-02-01T15:11:57;4.90;99.90
18189;DHT22;9219;50.396;8.546;2023-02-01T15:14:34;4.60;99.90
18189;DHT22;9219;50.396;8.546;2023-02-01T15:17:19;4.40;99.90
18189;DHT22;9219;50.396;8.546;2023-02-01T15:19:58;4.40;99.90
18189;DHT22;9219;50.396;8.546;2023-02-01T15:22:34;4.30;99.90
18189;DHT22;9219;50.396;8.546;2023-02-01T15:25:04;4.40;99.90
18189;DHT22;9219;50.396;8.546;2023-02-01T15:31:36;4.30;99.90
18189;DHT22;9219;50.396;8.546;2023-02-01T15:34:09;4.30;99.90
18189;DHT22;9219;50.396;8.546;2023-02-01T15:36:39;4.30;99.90
18189;DHT22;9219;50.396;8.546;2023-02-01T15:39:29;4.20;99.90
18189;DHT22;9219;50.396;8.546;2023-02-01T15:42:11;4.10;99.90
18189;DHT22;9219;50.396;8.546;2023-02-01T15:44:44;4.20;99.90
18189;DHT22;9219;50.396;8.546;2023-02-01T15:47:26;4.20;99.90
18189;DHT22;9219;50.396;8.546;2023-02-01T15:50:11;4.20;99.90
18189;DHT22;9219;50.396;8.546;2023-02-01T15:57:03;4.10;99.90
18189;DHT22;9219;50.396;8.546;2023-02-01T15:59:42;4.30;99.90
18189;DHT22;9219;50.396;8.546;2023-02-01T16:02:26;4.30;99.90
18189;DHT22;9219;50.396;8.546;2023-02-01T16:04:58;4.30;99.90
18189;DHT22;9219;50.396;8.546;2023-02-01T16:07:36;4.50;99.90
18189;DHT22;9219;50.396;8.546;2023-02-01T16:10:25;4.50;99.90
18189;DHT22;9219;50.396;8.546;2023-02-01T16:19:02;4.30;99.90
18189;DHT22;9219;50.396;8.546;2023-02-01T16:21:31;4.30;99.90
18189;DHT22;9219;50.396;8.546;2023-02-01T16:24:02;4.40;99.90
18189;DHT22;9219;50.396;8.546;2023-02-01T16:26:34;4.50;99.90
18189;DHT22;9219;50.396;8.546;2023-02-01T16:29:05;4.50;99.90
18189;DHT22;9219;50.396;8.546;2023-02-01T16:31:37;4.40;99.90
18189;DHT22;9219;50.396;8.546;2023-02-01T16:34:15;4.50;99.90
18189;DHT22;9219;50.396;8.546;2023-02-01T16:36:48;4.60;99.90
18189;DHT22;9219;50.396;8.546;2023-02-01T16:44:38;4.60;99.90
18189;DHT22;9219;50.396;8.546;2023-02-01T16:47:14;4.70;99.90
18189;DHT22;9219;50.396;8.546;2023-02-01T16:49:52;4.80;99.90
18189;DHT22;9219;50.396;8.546;2023-02-01T16:52:51;4.70;99.90
18189;DHT22;9219;50.396;8.546;2023-02-01T16:55:25;4.80;99.90
18189;DHT22;9219;50.396;8.546;2023-02-01T16:57:56;4.80;99.90
18189;DHT22;9219;50.396;8.546;2023-02-01T17:00:25;4.80;99.90
18189;DHT22;9219;50.396;8.546;2023-02-01T17:03:06;4.80;99.90
18189;DHT22;9219;50.396;8.546;2023-02-01T17:10:21;4.70;99.90
18189;DHT22;9219;50.396;8.546;2023-02-01T17:13:01;4.60;99.90
18189;DHT22;9219;50.396;8.546;2023-02-01T17:15:36;4.60;99.90
18189;DHT22;9219;50.396;8.546;2023-02-01T17:18:21;4.50;99.90
18189;DHT22;9219;50.396;8.546;2023-02-01T17:20:56;4.50;99.90
18189;DHT22;9219;50.396;8.546;2023-02-01T17:23:31;4.60;99.90
18189;DHT22;9219;50.396;8.546;2023-02-01T17:26:16;4.60;99.90
18189;DHT22;9219;50.396;8.546;2023-02-01T17:34:02;4.30;99.90
18189;DHT22;9219;50.396;8.546;2023-02-01T17:36:30;4.30;99.90
18189;DHT22;9219;50.396;8.546;2023-02-01T17:38:58;4.20;99.90
18189;DHT22;9219;50.396;8.546;2023-02-01T17:41:32;4.10;99.90
18189;DHT22;9219;50.396;8.546;2023-02-01T17:44:00;4.10;99.90
18189;DHT22;9219;50.396;8.546;2023-02-01T17:46:27;4.20;99.90
18189;DHT22;9219;50.396;8.546;2023-02-01T17:48:55;4.20;99.90
18189;DHT22;9219;50.396;8.546;2023-02-01T17:51:29;4.20;99.90
18189;DHT22;9219;50.396;8.546;2023-02-01T17:59:01;4.10;99.90
18189;DHT22;9219;50.396;8.546;2023-02-01T18:01:41;3.90;99.90
18189;DHT22;9219;50.396;8.546;2023-02-01T18:04:13;4.00;99.90
18189;DHT22;9219;50.396;8.546;2023-02-01T18:06:49;3.90;99.90
18189;DHT22;9219;50.396;8.546;2023-02-01T18:09:24;4.00;99.90
18189;DHT22;9219;50.396;8.546;2023-02-01T18:12:04;4.00;99.90
18189;DHT22;9219;50.396;8.546;2023-02-01T18:14:42;3.90;99.90
18189;DHT22;9219;50.396;8.546;2023-02-01T18:22:25;4.00;99.90
18189;DHT22;9219;50.396;8.546;2023-02-01T18:24:57;4.00;99.90
18189;DHT22;9219;50.396;8.546;2023-02-01T18:27:24;3.90;99.90
18189;DHT22;9219;50.396;8.546;2023-02-01T18:29:56;3.90;99.90
18189;DHT22;9219;50.396;8.546;2023-02-01T18:32:28;3.90;99.90
18189;DHT22;9219;50.396;8.546;2023-02-01T18:34:55;3.80;99.90
18189;DHT22;9219;50.396;8.546;2023-02-01T18:37:29;3.80;99.90
18189;DHT22;9219;50.396;8.546;2023-02-01T18:40:30;3.80;99.90
18189;DHT22;9219;50.396;8.546;2023-02-01T18:46:08;3.80;99.90
18189;DHT22;9219;50.396;8.546;2023-02-01T18:48:38;3.80;99.90
18189;DHT22;9219;50.396;8.546;2023-02-01T18:51:20;3.80;99.90
18189;DHT22;9219;50.396;8.546;2023-02-01T18:54:01;3.70;99.90
18189;DHT22;9219;50.396;8.546;2023-02-01T18:56:45;3.70;99.90
18189;DHT22;9219;50.396;8.546;2023-02-01T18:59:28;3.80;99.90
18189;DHT22;9219;50.396;8.546;2023-02-01T19:02:00;3.80;99.90
18189;DHT22;9219;50.396;8.546;2023-02-01T19:09:57;3.70;99.90
18189;DHT22;9219;50.396;8.546;2023-02-01T19:12:26;3.80;99.90
18189;DHT22;9219;50.396;8.546;2023-02-01T19:14:59;3.70;99.90
18189;DHT22;9219;50.396;8.546;2023-02-01T19:17:31;3.70;99.90
18189;DHT22;9219;50.396;8.546;2023-02-01T19:20:11;3.70;99.90
18189;DHT22;9219;50.396;8.546;2023-02-01T19:22:40;3.70;99.90
18189;DHT22;9219;50.396;8.546;2023-02-01T19:25:28;3.80;99.90
18189;DHT22;9219;50.396;8.546;2023-02-01T19:28:04;3.90;99.90
18189;DHT22;9219;50.396;8.546;2023-02-01T19:34:52;3.80;99.90
18189;DHT22;9219;50.396;8.546;2023-02-01T19:37:23;3.80;99.90
18189;DHT22;9219;50.396;8.546;2023-02-01T19:39:58;3.90;99.90
18189;DHT22;9219;50.396;8.546;2023-02-01T19:42:32;3.90;99.90
18189;DHT22;9219;50.396;8.546;2023-02-01T19:45:09;3.90;99.90
18189;DHT22;9219;50.396;8.546;2023-02-01T19:47:44;3.90;99.90
18189;DHT22;9219;50.396;8.546;2023-02-01T19:50:23;3.90;99.90
18189;DHT22;9219;50.396;8.546;2023-02-01T19:57:29;4.00;99.90
18189;DHT22;9219;50.396;8.546;2023-02-01T20:00:04;3.90;99.90
18189;DHT22;9219;50.396;8.546;2023-02-01T20:02:41;3.90;99.90
18189;DHT22;9219;50.396;8.546;2023-02-01T20:05:18;4.00;99.90
18189;DHT22;9219;50.396;8.546;2023-02-01T20:07:53;4.00;99.90
18189;DHT22;9219;50.396;8.546;2023-02-01T20:10:23;4.00;99.90
18189;DHT22;9219;50.396;8.546;2023-02-01T20:12:59;4.10;99.90
18189;DHT22;9219;50.396;8.546;2023-02-01T20:21:13;4.10;99.90
18189;DHT22;9219;50.396;8.546;2023-02-01T20:23:44;4.10;99.90
18189;DHT22;9219;50.396;8.546;2023-02-01T20:26:15;4.20;99.90
18189;DHT22;9219;50.396;8.546;2023-02-01T20:29:01;4.20;99.90
18189;DHT22;9219;50.396;8.546;2023-02-01T20:31:42;4.20;99.90
18189;DHT22;9219;50.396;8.546;2023-02-01T20:34:16;4.20;99.90
18189;DHT22;9219;50.396;8.546;2023-02-01T20:36:49;4.20;99.90
18189;DHT22;9219;50.396;8.546;2023-02-01T20:44:32;4.20;99.90
18189;DHT22;9219;50.396;8.546;2023-02-01T20:47:09;4.30;99.90
18189;DHT22;9219;50.396;8.546;2023-02-01T20:49:52;4.20;99.90
18189;DHT22;9219;50.396;8.546;2023-02-01T20:52:21;4.30;99.90
18189;DHT22;9219;50.396;8.546;2023-02-01T20:54:49;4.30;99.90
18189;DHT22;9219;50.396;8.546;2023-02-01T20:57:22;4.30;99.90
18189;DHT22;9219;50.396;8.546;2023-02-01T20:59:55;4.40;99.90
18189;DHT22;9219;50.396;8.546;2023-02-01T21:02:44;4.40;99.90
18189;DHT22;9219;50.396;8.546;2023-02-01T21:05:13;4.40;99.90
18189;DHT22;9219;50.396;8.546;2023-02-01T21:07:46;4.30;99.90
18189;DHT22;9219;50.396;8.546;2023-02-01T21:10:16;4.40;99.90
18189;DHT22;9219;50.396;8.546;2023-02-01T21:12:44;4.40;99.90
18189;DHT22;9219;50.396;8.546;2023-02-01T21:15:36;4.30;99.90
18189;DHT22;9219;50.396;8.546;2023-02-01T21:18:11;4.30;99.90
18189;DHT22;9219;50.396;8.546;2023-02-01T21:20:40;4.30;99.90